sensor_id;sensor_type;location;lat;lon;timestamp;pressure;altitude;pressure_sealevel;temperature
64947;BMP280;51469;52.150;4.682;2023-05-01T00:00:59;102077.53;;;16.45
64947;BMP280;51469;52.150;4.682;2023-05-01T00:03:25;102084.63;;;16.42
64947;BMP280;51469;52.150;4.682;2023-05-01T00:05:50;102080.69;;;16.43
64947;BMP280;51469;52.150;4.682;2023-05-01T00:08:16;102080.31;;;16.41
64947;BMP280;51469;52.150;4.682;2023-05-01T00:10:41;102079.16;;;16.46
64947;BMP280;51469;52.150;4.682;2023-05-01T00:13:07;102066.47;;;16.41
64947;BMP280;51469;52.150;4.682;2023-05-01T00:15:34;102067.25;;;16.42
64947;BMP280;51469;52.150;4.682;2023-05-01T00:17:59;102072.00;;;16.41
64947;BMP280;51469;52.150;4.682;2023-05-01T00:20:28;102062.44;;;16.35
64947;BMP280;51469;52.150;4.682;2023-05-01T00:22:54;102065.59;;;16.34
64947;BMP280;51469;52.150;4.682;2023-05-01T00:25:19;102056.91;;;16.35
64947;BMP280;51469;52.150;4.682;2023-05-01T00:27:45;102062.03;;;16.33
64947;BMP280;51469;52.150;4.682;2023-05-01T00:30:11;102062.41;;;16.28
64947;BMP280;51469;52.150;4.682;2023-05-01T00:32:36;102054.84;;;16.18
64947;BMP280;51469;52.150;4.682;2023-05-01T00:35:03;102051.25;;;16.14
64947;BMP280;51469;52.150;4.682;2023-05-01T00:37:28;102048.84;;;16.09
64947;BMP280;51469;52.150;4.682;2023-05-01T00:39:53;102051.19;;;16.07
64947;BMP280;51469;52.150;4.682;2023-05-01T00:42:19;102045.59;;;16.00
64947;BMP280;51469;52.150;4.682;2023-05-01T00:44:44;102037.63;;;15.95
64947;BMP280;51469;52.150;4.682;2023-05-01T00:47:09;102048.28;;;15.86
64947;BMP280;51469;52.150;4.682;2023-05-01T00:49:35;102035.97;;;15.80
64947;BMP280;51469;52.150;4.682;2023-05-01T00:52:00;102034.72;;;15.74
64947;BMP280;51469;52.150;4.682;2023-05-01T00:54:26;102035.06;;;15.69
64947;BMP280;51469;52.150;4.682;2023-05-01T00:56:54;102027.91;;;15.61
64947;BMP280;51469;52.150;4.682;2023-05-01T00:59:20;102019.19;;;15.59
64947;BMP280;51469;52.150;4.682;2023-05-01T01:01:46;102031.84;;;15.57
64947;BMP280;51469;52.150;4.682;2023-05-01T01:04:11;102014.78;;;15.51
64947;BMP280;51469;52.150;4.682;2023-05-01T01:15:34;101998.47;;;15.39
64947;BMP280;51469;52.150;4.682;2023-05-01T01:18:08;101997.31;;;15.40
64947;BMP280;51469;52.150;4.682;2023-05-01T01:26:12;101988.22;;;15.43
64947;BMP280;51469;52.150;4.682;2023-05-01T01:31:32;101983.47;;;15.40
64947;BMP280;51469;52.150;4.682;2023-05-01T01:34:07;101972.41;;;15.40
64947;BMP280;51469;52.150;4.682;2023-05-01T01:36:45;101959.75;;;15.43
64947;BMP280;51469;52.150;4.682;2023-05-01T01:39:26;101959.81;;;15.46
64947;BMP280;51469;52.150;4.682;2023-05-01T01:41:53;101955.88;;;15.47
64947;BMP280;51469;52.150;4.682;2023-05-01T01:44:29;101945.16;;;15.42
64947;BMP280;51469;52.150;4.682;2023-05-01T01:46:58;101947.19;;;15.49
64947;BMP280;51469;52.150;4.682;2023-05-01T01:49:26;101938.50;;;15.50
64947;BMP280;51469;52.150;4.682;2023-05-01T01:51:52;101935.78;;;15.54
64947;BMP280;51469;52.150;4.682;2023-05-01T01:54:23;101929.06;;;15.55
64947;BMP280;51469;52.150;4.682;2023-05-01T01:56:50;101923.09;;;15.52
64947;BMP280;51469;52.150;4.682;2023-05-01T01:59:17;101916.41;;;15.54
64947;BMP280;51469;52.150;4.682;2023-05-01T02:01:45;101915.25;;;15.58
64947;BMP280;51469;52.150;4.682;2023-05-01T02:04:12;101919.66;;;15.66
64947;BMP280;51469;52.150;4.682;2023-05-01T02:06:39;101916.53;;;15.71
64947;BMP280;51469;52.150;4.682;2023-05-01T02:09:05;101905.47;;;15.75
64947;BMP280;51469;52.150;4.682;2023-05-01T02:11:32;101913.38;;;15.73
64947;BMP280;51469;52.150;4.682;2023-05-01T02:14:00;101905.50;;;15.78
64947;BMP280;51469;52.150;4.682;2023-05-01T02:16:27;101907.88;;;15.80
64947;BMP280;51469;52.150;4.682;2023-05-01T02:18:54;101897.59;;;15.80
64947;BMP280;51469;52.150;4.682;2023-05-01T02:21:21;101896.84;;;15.87
64947;BMP280;51469;52.150;4.682;2023-05-01T02:23:47;101902.00;;;15.88
64947;BMP280;51469;52.150;4.682;2023-05-01T02:26:15;101901.59;;;15.86
64947;BMP280;51469;52.150;4.682;2023-05-01T02:28:42;101903.53;;;15.82
64947;BMP280;51469;52.150;4.682;2023-05-01T02:31:08;101891.25;;;15.76
64947;BMP280;51469;52.150;4.682;2023-05-01T02:33:34;101886.47;;;15.70
64947;BMP280;51469;52.150;4.682;2023-05-01T02:35:59;101880.50;;;15.64
64947;BMP280;51469;52.150;4.682;2023-05-01T02:38:25;101894.31;;;15.64
64947;BMP280;51469;52.150;4.682;2023-05-01T02:40:52;101876.91;;;15.57
64947;BMP280;51469;52.150;4.682;2023-05-01T02:43:21;101888.75;;;15.54
64947;BMP280;51469;52.150;4.682;2023-05-01T02:45:48;101876.84;;;15.50
64947;BMP280;51469;52.150;4.682;2023-05-01T02:48:19;101883.19;;;15.50
64947;BMP280;51469;52.150;4.682;2023-05-01T02:50:46;101881.59;;;15.49
64947;BMP280;51469;52.150;4.682;2023-05-01T02:53:13;101876.84;;;15.50
64947;BMP280;51469;52.150;4.682;2023-05-01T02:55:40;101874.44;;;15.45
64947;BMP280;51469;52.150;4.682;2023-05-01T02:58:07;101861.00;;;15.40
64947;BMP280;51469;52.150;4.682;2023-05-01T03:00:32;101865.75;;;15.39
64947;BMP280;51469;52.150;4.682;2023-05-01T03:02:58;101853.00;;;15.31
64947;BMP280;51469;52.150;4.682;2023-05-01T03:05:23;101864.88;;;15.32
64947;BMP280;51469;52.150;4.682;2023-05-01T03:07:49;101864.06;;;15.31
64947;BMP280;51469;52.150;4.682;2023-05-01T03:10:15;101868.81;;;15.27
64947;BMP280;51469;52.150;4.682;2023-05-01T03:12:40;101856.13;;;15.26
64947;BMP280;51469;52.150;4.682;2023-05-01T03:15:06;101853.72;;;15.21
64947;BMP280;51469;52.150;4.682;2023-05-01T03:17:32;101861.66;;;15.19
64947;BMP280;51469;52.150;4.682;2023-05-01T03:19:58;101860.03;;;15.18
64947;BMP280;51469;52.150;4.682;2023-05-01T03:22:23;101856.84;;;15.16
64947;BMP280;51469;52.150;4.682;2023-05-01T03:24:48;101850.53;;;15.12
64947;BMP280;51469;52.150;4.682;2023-05-01T03:27:14;101845.75;;;15.09
64947;BMP280;51469;52.150;4.682;2023-05-01T03:29:40;101837.88;;;15.08
64947;BMP280;51469;52.150;4.682;2023-05-01T03:32:05;101837.00;;;15.03
64947;BMP280;51469;52.150;4.682;2023-05-01T03:34:30;101837.50;;;15.13
64947;BMP280;51469;52.150;4.682;2023-05-01T03:36:56;101841.88;;;15.17
64947;BMP280;51469;52.150;4.682;2023-05-01T03:39:21;101815.75;;;15.08
64947;BMP280;51469;52.150;4.682;2023-05-01T03:41:47;101827.25;;;15.20
64947;BMP280;51469;52.150;4.682;2023-05-01T03:44:12;101825.34;;;15.24
64947;BMP280;51469;52.150;4.682;2023-05-01T03:46:37;101830.09;;;15.31
64947;BMP280;51469;52.150;4.682;2023-05-01T03:49:03;101819.81;;;15.24
64947;BMP280;51469;52.150;4.682;2023-05-01T03:51:28;101819.09;;;15.34
64947;BMP280;51469;52.150;4.682;2023-05-01T03:53:54;101819.47;;;15.36
64947;BMP280;51469;52.150;4.682;2023-05-01T03:56:23;101820.69;;;15.35
64947;BMP280;51469;52.150;4.682;2023-05-01T03:58:52;101822.22;;;15.36
64947;BMP280;51469;52.150;4.682;2023-05-01T04:01:18;101820.69;;;15.35
64947;BMP280;51469;52.150;4.682;2023-05-01T04:03:44;101821.06;;;15.37
64947;BMP280;51469;52.150;4.682;2023-05-01T04:06:10;101820.69;;;15.35
64947;BMP280;51469;52.150;4.682;2023-05-01T04:08:36;101812.75;;;15.30
64947;BMP280;51469;52.150;4.682;2023-05-01T04:11:01;101807.53;;;15.22
64947;BMP280;51469;52.150;4.682;2023-05-01T04:13:27;101815.88;;;15.29
64947;BMP280;51469;52.150;4.682;2023-05-01T04:15:52;101813.53;;;15.31
64947;BMP280;51469;52.150;4.682;2023-05-01T04:18:19;101806.00;;;15.31
64947;BMP280;51469;52.150;4.682;2023-05-01T04:20:45;101812.75;;;15.30
64947;BMP280;51469;52.150;4.682;2023-05-01T04:23:10;101807.22;;;15.34
64947;BMP280;51469;52.150;4.682;2023-05-01T04:25:36;101807.28;;;15.44
64947;BMP280;51469;52.150;4.682;2023-05-01T04:28:02;101807.28;;;15.48
64947;BMP280;51469;52.150;4.682;2023-05-01T04:30:29;101804.13;;;15.49
64947;BMP280;51469;52.150;4.682;2023-05-01T04:32:55;101800.97;;;15.47
64947;BMP280;51469;52.150;4.682;2023-05-01T04:35:21;101791.56;;;15.55
64947;BMP280;51469;52.150;4.682;2023-05-01T04:37:47;101795.91;;;15.56
64947;BMP280;51469;52.150;4.682;2023-05-01T04:40:13;101799.47;;;15.60
64947;BMP280;51469;52.150;4.682;2023-05-01T04:42:38;101798.72;;;15.67
64947;BMP280;51469;52.150;4.682;2023-05-01T04:45:04;101799.88;;;15.69
64947;BMP280;51469;52.150;4.682;2023-05-01T04:47:29;101803.50;;;15.73
64947;BMP280;51469;52.150;4.682;2023-05-01T04:49:55;101786.91;;;15.73
64947;BMP280;51469;52.150;4.682;2023-05-01T04:52:20;101795.63;;;15.79
64947;BMP280;51469;52.150;4.682;2023-05-01T04:54:45;101790.13;;;15.89
64947;BMP280;51469;52.150;4.682;2023-05-01T04:57:11;101784.94;;;15.74
64947;BMP280;51469;52.150;4.682;2023-05-01T04:59:36;101794.06;;;15.88
64947;BMP280;51469;52.150;4.682;2023-05-01T05:02:01;101793.28;;;15.91
64947;BMP280;51469;52.150;4.682;2023-05-01T05:04:27;101791.69;;;15.90
64947;BMP280;51469;52.150;4.682;2023-05-01T05:06:52;101798.88;;;16.05
64947;BMP280;51469;52.150;4.682;2023-05-01T05:09:17;101798.88;;;16.12
64947;BMP280;51469;52.150;4.682;2023-05-01T05:11:43;101800.47;;;16.13
64947;BMP280;51469;52.150;4.682;2023-05-01T05:14:09;101799.69;;;16.16
64947;BMP280;51469;52.150;4.682;2023-05-01T05:16:34;101790.59;;;16.16
64947;BMP280;51469;52.150;4.682;2023-05-01T05:18:59;101797.34;;;16.25
64947;BMP280;51469;52.150;4.682;2023-05-01T05:21:25;101798.56;;;16.31
64947;BMP280;51469;52.150;4.682;2023-05-01T05:23:50;101796.56;;;16.35
64947;BMP280;51469;52.150;4.682;2023-05-01T05:26:16;101785.41;;;16.07
64947;BMP280;51469;52.150;4.682;2023-05-01T05:28:41;101798.56;;;16.31
64947;BMP280;51469;52.150;4.682;2023-05-01T05:31:06;101797.38;;;16.39
64947;BMP280;51469;52.150;4.682;2023-05-01T05:33:32;101794.16;;;16.30
64947;BMP280;51469;52.150;4.682;2023-05-01T05:35:57;101801.28;;;16.35
64947;BMP280;51469;52.150;4.682;2023-05-01T05:38:23;101787.84;;;16.40
64947;BMP280;51469;52.150;4.682;2023-05-01T05:40:49;101792.63;;;16.57
64947;BMP280;51469;52.150;4.682;2023-05-01T05:43:14;101779.56;;;16.54
64947;BMP280;51469;52.150;4.682;2023-05-01T05:45:40;101787.88;;;16.72
64947;BMP280;51469;52.150;4.682;2023-05-01T05:48:05;101787.84;;;16.68
64947;BMP280;51469;52.150;4.682;2023-05-01T05:50:31;101794.19;;;16.79
64947;BMP280;51469;52.150;4.682;2023-05-01T05:52:56;101787.06;;;16.78
64947;BMP280;51469;52.150;4.682;2023-05-01T05:55:21;101787.91;;;16.82
64947;BMP280;51469;52.150;4.682;2023-05-01T05:57:47;101779.53;;;16.96
64947;BMP280;51469;52.150;4.682;2023-05-01T06:00:12;101779.13;;;17.01
64947;BMP280;51469;52.150;4.682;2023-05-01T06:02:38;101783.88;;;17.11
64947;BMP280;51469;52.150;4.682;2023-05-01T06:05:04;101774.72;;;17.25
64947;BMP280;51469;52.150;4.682;2023-05-01T06:07:29;101783.03;;;17.28
64947;BMP280;51469;52.150;4.682;2023-05-01T06:09:55;101783.06;;;17.21
64947;BMP280;51469;52.150;4.682;2023-05-01T06:12:25;101780.66;;;17.30
64947;BMP280;51469;52.150;4.682;2023-05-01T06:14:51;101777.47;;;17.35
64947;BMP280;51469;52.150;4.682;2023-05-01T06:17:16;101775.84;;;17.48
64947;BMP280;51469;52.150;4.682;2023-05-01T06:19:42;101777.44;;;17.42
64947;BMP280;51469;52.150;4.682;2023-05-01T06:22:07;101779.75;;;17.61
64947;BMP280;51469;52.150;4.682;2023-05-01T06:24:32;101776.56;;;17.66
64947;BMP280;51469;52.150;4.682;2023-05-01T06:26:58;101778.09;;;17.77
64947;BMP280;51469;52.150;4.682;2023-05-01T06:29:23;101778.94;;;17.60
64947;BMP280;51469;52.150;4.682;2023-05-01T06:31:49;101776.59;;;17.59
64947;BMP280;51469;52.150;4.682;2023-05-01T06:34:14;101782.19;;;17.45
64947;BMP280;51469;52.150;4.682;2023-05-01T06:36:40;101784.22;;;17.31
64947;BMP280;51469;52.150;4.682;2023-05-01T06:39:05;101783.47;;;17.09
64947;BMP280;51469;52.150;4.682;2023-05-01T06:41:30;101777.53;;;17.11
64947;BMP280;51469;52.150;4.682;2023-05-01T06:43:56;101781.50;;;17.13
64947;BMP280;51469;52.150;4.682;2023-05-01T06:46:22;101766.38;;;17.32
64947;BMP280;51469;52.150;4.682;2023-05-01T06:48:48;101766.31;;;17.42
64947;BMP280;51469;52.150;4.682;2023-05-01T06:51:13;101770.25;;;17.55
64947;BMP280;51469;52.150;4.682;2023-05-01T06:53:40;101769.41;;;17.61
64947;BMP280;51469;52.150;4.682;2023-05-01T06:56:06;101773.41;;;17.57
64947;BMP280;51469;52.150;4.682;2023-05-01T06:58:31;101771.34;;;17.71
64947;BMP280;51469;52.150;4.682;2023-05-01T07:00:57;101768.53;;;17.82
64947;BMP280;51469;52.150;4.682;2023-05-01T07:03:22;101773.25;;;17.92
64947;BMP280;51469;52.150;4.682;2023-05-01T07:05:48;101764.63;;;17.76
64947;BMP280;51469;52.150;4.682;2023-05-01T07:08:13;101768.59;;;17.68
64947;BMP280;51469;52.150;4.682;2023-05-01T07:10:38;101772.97;;;17.65
64947;BMP280;51469;52.150;4.682;2023-05-01T07:13:04;101767.81;;;17.67
64947;BMP280;51469;52.150;4.682;2023-05-01T07:15:29;101771.03;;;17.63
64947;BMP280;51469;52.150;4.682;2023-05-01T07:17:55;101772.47;;;17.88
64947;BMP280;51469;52.150;4.682;2023-05-01T07:20:20;101777.84;;;18.16
64947;BMP280;51469;52.150;4.682;2023-05-01T07:22:45;101787.38;;;18.15
64947;BMP280;51469;52.150;4.682;2023-05-01T07:25:11;101779.28;;;18.38
64947;BMP280;51469;52.150;4.682;2023-05-01T07:27:36;101782.06;;;18.38
64947;BMP280;51469;52.150;4.682;2023-05-01T07:30:02;101771.50;;;18.63
64947;BMP280;51469;52.150;4.682;2023-05-01T07:32:29;101779.66;;;18.84
64947;BMP280;51469;52.150;4.682;2023-05-01T07:34:55;101784.25;;;19.01
64947;BMP280;51469;52.150;4.682;2023-05-01T07:37:20;101773.06;;;19.04
64947;BMP280;51469;52.150;4.682;2023-05-01T07:39:45;101775.47;;;19.06
64947;BMP280;51469;52.150;4.682;2023-05-01T07:42:11;101767.47;;;19.08
64947;BMP280;51469;52.150;4.682;2023-05-01T07:44:36;101782.53;;;19.14
64947;BMP280;51469;52.150;4.682;2023-05-01T07:47:02;101783.25;;;19.18
64947;BMP280;51469;52.150;4.682;2023-05-01T07:49:28;101766.91;;;19.23
64947;BMP280;51469;52.150;4.682;2023-05-01T07:51:53;101780.78;;;19.27
64947;BMP280;51469;52.150;4.682;2023-05-01T07:54:19;101776.19;;;19.10
64947;BMP280;51469;52.150;4.682;2023-05-01T07:56:46;101775.06;;;19.04
64947;BMP280;51469;52.150;4.682;2023-05-01T07:59:11;101776.50;;;19.19
64947;BMP280;51469;52.150;4.682;2023-05-01T08:04:04;101778.72;;;19.31
64947;BMP280;51469;52.150;4.682;2023-05-01T08:06:30;101780.69;;;19.34
64947;BMP280;51469;52.150;4.682;2023-05-01T08:08:56;101783.78;;;19.39
64947;BMP280;51469;52.150;4.682;2023-05-01T08:11:21;101773.28;;;19.54
64947;BMP280;51469;52.150;4.682;2023-05-01T08:13:47;101765.28;;;19.56
64947;BMP280;51469;52.150;4.682;2023-05-01T08:16:12;101773.19;;;19.61
64947;BMP280;51469;52.150;4.682;2023-05-01T08:18:37;101772.38;;;19.60
64947;BMP280;51469;52.150;4.682;2023-05-01T08:21:03;101774.03;;;19.58
64947;BMP280;51469;52.150;4.682;2023-05-01T08:23:28;101777.88;;;19.64
64947;BMP280;51469;52.150;4.682;2023-05-01T08:25:54;101783.13;;;19.88
64947;BMP280;51469;52.150;4.682;2023-05-01T08:28:19;101772.81;;;19.85
64947;BMP280;51469;52.150;4.682;2023-05-01T08:30:45;101784.06;;;20.05
64947;BMP280;51469;52.150;4.682;2023-05-01T08:33:10;101781.69;;;20.30
64947;BMP280;51469;52.150;4.682;2023-05-01T08:35:39;101779.66;;;20.34
64947;BMP280;51469;52.150;4.682;2023-05-01T08:38:04;101771.75;;;20.52
64947;BMP280;51469;52.150;4.682;2023-05-01T08:40:33;101778.03;;;20.56
64947;BMP280;51469;52.150;4.682;2023-05-01T08:43:00;101772.22;;;20.70
64947;BMP280;51469;52.150;4.682;2023-05-01T08:45:27;101769.47;;;20.89
64947;BMP280;51469;52.150;4.682;2023-05-01T08:47:55;101768.75;;;21.05
64947;BMP280;51469;52.150;4.682;2023-05-01T08:50:22;101780.06;;;21.17
64947;BMP280;51469;52.150;4.682;2023-05-01T08:52:50;101775.69;;;21.36
64947;BMP280;51469;52.150;4.682;2023-05-01T08:55:15;101784.97;;;21.49
64947;BMP280;51469;52.150;4.682;2023-05-01T08:57:46;101778.22;;;21.66
64947;BMP280;51469;52.150;4.682;2023-05-01T09:00:16;101780.81;;;21.57
64947;BMP280;51469;52.150;4.682;2023-05-01T09:02:43;101785.47;;;21.79
64947;BMP280;51469;52.150;4.682;2023-05-01T09:05:10;101779.75;;;21.67
64947;BMP280;51469;52.150;4.682;2023-05-01T09:07:36;101792.78;;;21.57
64947;BMP280;51469;52.150;4.682;2023-05-01T09:10:03;101787.47;;;21.79
64947;BMP280;51469;52.150;4.682;2023-05-01T09:12:29;101794.56;;;21.83
64947;BMP280;51469;52.150;4.682;2023-05-01T09:14:55;101789.03;;;21.64
64947;BMP280;51469;52.150;4.682;2023-05-01T09:17:22;101796.75;;;21.92
64947;BMP280;51469;52.150;4.682;2023-05-01T09:19:51;101792.22;;;21.98
64947;BMP280;51469;52.150;4.682;2023-05-01T09:22:17;101791.00;;;21.99
64947;BMP280;51469;52.150;4.682;2023-05-01T09:24:44;101803.94;;;22.25
64947;BMP280;51469;52.150;4.682;2023-05-01T09:27:11;101800.94;;;21.84
64947;BMP280;51469;52.150;4.682;2023-05-01T09:29:44;101808.88;;;21.69
64947;BMP280;51469;52.150;4.682;2023-05-01T09:32:17;101814.00;;;21.71
64947;BMP280;51469;52.150;4.682;2023-05-01T09:34:44;101818.75;;;21.90
64947;BMP280;51469;52.150;4.682;2023-05-01T09:42:31;101821.03;;;21.40
64947;BMP280;51469;52.150;4.682;2023-05-01T09:44:58;101827.59;;;21.53
64947;BMP280;51469;52.150;4.682;2023-05-01T09:47:24;101819.19;;;20.71
64947;BMP280;51469;52.150;4.682;2023-05-01T09:49:54;101832.13;;;20.62
64947;BMP280;51469;52.150;4.682;2023-05-01T09:52:19;101833.00;;;20.59
64947;BMP280;51469;52.150;4.682;2023-05-01T09:54:45;101836.47;;;20.86
64947;BMP280;51469;52.150;4.682;2023-05-01T09:57:10;101836.84;;;20.42
64947;BMP280;51469;52.150;4.682;2023-05-01T09:59:36;101837.81;;;20.78
64947;BMP280;51469;52.150;4.682;2023-05-01T10:02:03;101838.56;;;20.59
64947;BMP280;51469;52.150;4.682;2023-05-01T10:04:33;101822.44;;;20.70
64947;BMP280;51469;52.150;4.682;2023-05-01T10:07:12;101845.88;;;20.95
64947;BMP280;51469;52.150;4.682;2023-05-01T10:09:38;101841.75;;;21.03
64947;BMP280;51469;52.150;4.682;2023-05-01T10:12:03;101845.03;;;20.52
64947;BMP280;51469;52.150;4.682;2023-05-01T10:14:29;101855.22;;;20.13
64947;BMP280;51469;52.150;4.682;2023-05-01T10:16:58;101855.25;;;20.36
64947;BMP280;51469;52.150;4.682;2023-05-01T10:19:23;101854.44;;;20.12
64947;BMP280;51469;52.150;4.682;2023-05-01T10:21:49;101850.03;;;19.85
64947;BMP280;51469;52.150;4.682;2023-05-01T10:24:14;101846.44;;;20.14
64947;BMP280;51469;52.150;4.682;2023-05-01T10:26:41;101852.97;;;20.04
64947;BMP280;51469;52.150;4.682;2023-05-01T10:29:11;101859.00;;;19.99
64947;BMP280;51469;52.150;4.682;2023-05-01T10:31:36;101868.88;;;20.04
64947;BMP280;51469;52.150;4.682;2023-05-01T10:34:02;101867.31;;;20.03
64947;BMP280;51469;52.150;4.682;2023-05-01T10:36:35;101862.25;;;19.94
64947;BMP280;51469;52.150;4.682;2023-05-01T10:39:02;101871.41;;;19.95
64947;BMP280;51469;52.150;4.682;2023-05-01T10:44:23;101879.47;;;19.86
64947;BMP280;51469;52.150;4.682;2023-05-01T10:46:48;101862.88;;;19.75
64947;BMP280;51469;52.150;4.682;2023-05-01T10:49:14;101874.94;;;19.65
64947;BMP280;51469;52.150;4.682;2023-05-01T10:54:30;101880.81;;;19.41
64947;BMP280;51469;52.150;4.682;2023-05-01T10:56:58;101884.16;;;19.25
64947;BMP280;51469;52.150;4.682;2023-05-01T10:59:25;101865.25;;;19.03
64947;BMP280;51469;52.150;4.682;2023-05-01T11:01:51;101871.84;;;18.82
64947;BMP280;51469;52.150;4.682;2023-05-01T11:12:06;101864.94;;;18.50
64947;BMP280;51469;52.150;4.682;2023-05-01T11:20:11;101871.28;;;18.98
64947;BMP280;51469;52.150;4.682;2023-05-01T11:22:38;101872.44;;;19.04
64947;BMP280;51469;52.150;4.682;2023-05-01T11:25:22;101878.69;;;19.11
64947;BMP280;51469;52.150;4.682;2023-05-01T11:27:50;101866.09;;;19.00
64947;BMP280;51469;52.150;4.682;2023-05-01T11:30:16;101873.94;;;19.12
64947;BMP280;51469;52.150;4.682;2023-05-01T11:32:46;101861.16;;;19.18
64947;BMP280;51469;52.150;4.682;2023-05-01T11:35:20;101866.03;;;19.07
64947;BMP280;51469;52.150;4.682;2023-05-01T11:37:46;101856.88;;;18.62
64947;BMP280;51469;52.150;4.682;2023-05-01T11:40:22;101860.59;;;18.93
64947;BMP280;51469;52.150;4.682;2023-05-01T11:42:48;101850.00;;;18.81
64947;BMP280;51469;52.150;4.682;2023-05-01T11:45:14;101854.31;;;18.89
64947;BMP280;51469;52.150;4.682;2023-05-01T11:47:40;101857.78;;;18.96
64947;BMP280;51469;52.150;4.682;2023-05-01T11:50:07;101851.63;;;19.19
64947;BMP280;51469;52.150;4.682;2023-05-01T11:52:42;101859.53;;;19.20
64947;BMP280;51469;52.150;4.682;2023-05-01T11:55:09;101859.38;;;19.01
64947;BMP280;51469;52.150;4.682;2023-05-01T11:57:51;101848.38;;;19.27
64947;BMP280;51469;52.150;4.682;2023-05-01T12:00:32;101856.66;;;19.31
64947;BMP280;51469;52.150;4.682;2023-05-01T12:03:20;101849.72;;;19.46
64947;BMP280;51469;52.150;4.682;2023-05-01T12:05:47;101851.09;;;18.90
64947;BMP280;51469;52.150;4.682;2023-05-01T12:08:17;101848.84;;;18.75
64947;BMP280;51469;52.150;4.682;2023-05-01T12:10:43;101848.97;;;19.45
64947;BMP280;51469;52.150;4.682;2023-05-01T12:13:11;101852.56;;;19.76
64947;BMP280;51469;52.150;4.682;2023-05-01T12:15:41;101858.13;;;19.76
64947;BMP280;51469;52.150;4.682;2023-05-01T12:18:06;101855.31;;;19.46
64947;BMP280;51469;52.150;4.682;2023-05-01T12:20:43;101856.69;;;19.61
64947;BMP280;51469;52.150;4.682;2023-05-01T12:23:10;101855.41;;;19.99
64947;BMP280;51469;52.150;4.682;2023-05-01T12:25:39;101859.19;;;20.12
64947;BMP280;51469;52.150;4.682;2023-05-01T12:28:08;101857.19;;;20.39
64947;BMP280;51469;52.150;4.682;2023-05-01T12:30:35;101847.72;;;20.33
64947;BMP280;51469;52.150;4.682;2023-05-01T12:33:07;101847.44;;;20.01
64947;BMP280;51469;52.150;4.682;2023-05-01T12:35:33;101854.19;;;20.53
64947;BMP280;51469;52.150;4.682;2023-05-01T12:37:58;101843.66;;;20.87
64947;BMP280;51469;52.150;4.682;2023-05-01T12:40:25;101842.19;;;21.21
64947;BMP280;51469;52.150;4.682;2023-05-01T12:42:55;101836.59;;;20.79
64947;BMP280;51469;52.150;4.682;2023-05-01T12:45:22;101837.66;;;20.65
64947;BMP280;51469;52.150;4.682;2023-05-01T12:47:47;101839.72;;;21.23
64947;BMP280;51469;52.150;4.682;2023-05-01T12:50:13;101840.09;;;21.06
64947;BMP280;51469;52.150;4.682;2023-05-01T12:52:38;101841.88;;;21.55
64947;BMP280;51469;52.150;4.682;2023-05-01T12:55:04;101850.38;;;21.87
64947;BMP280;51469;52.150;4.682;2023-05-01T12:57:30;101844.47;;;22.17
64947;BMP280;51469;52.150;4.682;2023-05-01T13:00:02;101845.50;;;22.71
64947;BMP280;51469;52.150;4.682;2023-05-01T13:02:30;101848.59;;;22.88
64947;BMP280;51469;52.150;4.682;2023-05-01T13:05:07;101839.78;;;23.18
64947;BMP280;51469;52.150;4.682;2023-05-01T13:07:34;101842.84;;;23.49
64947;BMP280;51469;52.150;4.682;2023-05-01T13:09:59;101839.97;;;23.11
64947;BMP280;51469;52.150;4.682;2023-05-01T13:12:26;101845.66;;;23.08
64947;BMP280;51469;52.150;4.682;2023-05-01T13:14:52;101833.75;;;23.32
64947;BMP280;51469;52.150;4.682;2023-05-01T13:17:22;101846.13;;;23.47
64947;BMP280;51469;52.150;4.682;2023-05-01T13:20:00;101840.03;;;23.36
64947;BMP280;51469;52.150;4.682;2023-05-01T13:24:54;101837.88;;;23.28
64947;BMP280;51469;52.150;4.682;2023-05-01T13:27:20;101851.31;;;23.61
64947;BMP280;51469;52.150;4.682;2023-05-01T13:29:57;101837.59;;;23.63
64947;BMP280;51469;52.150;4.682;2023-05-01T13:32:24;101842.94;;;23.45
64947;BMP280;51469;52.150;4.682;2023-05-01T13:34:50;101844.66;;;23.43
64947;BMP280;51469;52.150;4.682;2023-05-01T13:37:16;101842.47;;;23.34
64947;BMP280;51469;52.150;4.682;2023-05-01T13:39:42;101846.84;;;23.35
64947;BMP280;51469;52.150;4.682;2023-05-01T13:42:10;101846.47;;;23.08
64947;BMP280;51469;52.150;4.682;2023-05-01T13:44:42;101842.31;;;22.84
64947;BMP280;51469;52.150;4.682;2023-05-01T13:47:15;101834.75;;;22.97
64947;BMP280;51469;52.150;4.682;2023-05-01T13:49:41;101836.50;;;23.20
64947;BMP280;51469;52.150;4.682;2023-05-01T13:52:10;101841.50;;;23.41
64947;BMP280;51469;52.150;4.682;2023-05-01T13:54:39;101846.00;;;23.51
64947;BMP280;51469;52.150;4.682;2023-05-01T13:57:06;101851.59;;;23.51
64947;BMP280;51469;52.150;4.682;2023-05-01T13:59:36;101842.97;;;23.70
64947;BMP280;51469;52.150;4.682;2023-05-01T14:04:58;101846.59;;;23.83
64947;BMP280;51469;52.150;4.682;2023-05-01T14:07:24;101841.00;;;23.83
64947;BMP280;51469;52.150;4.682;2023-05-01T14:09:56;101845.25;;;23.75
64947;BMP280;51469;52.150;4.682;2023-05-01T14:12:25;101851.78;;;23.97
64947;BMP280;51469;52.150;4.682;2023-05-01T14:14:51;101841.69;;;23.87
64947;BMP280;51469;52.150;4.682;2023-05-01T14:17:17;101837.59;;;23.88
64947;BMP280;51469;52.150;4.682;2023-05-01T14:19:42;101848.13;;;24.09
64947;BMP280;51469;52.150;4.682;2023-05-01T14:22:08;101837.16;;;24.02
64947;BMP280;51469;52.150;4.682;2023-05-01T14:24:35;101834.34;;;24.15
64947;BMP280;51469;52.150;4.682;2023-05-01T14:27:01;101838.38;;;24.01
64947;BMP280;51469;52.150;4.682;2023-05-01T14:29:27;101835.91;;;24.16
64947;BMP280;51469;52.150;4.682;2023-05-01T14:31:54;101839.16;;;24.14
64947;BMP280;51469;52.150;4.682;2023-05-01T14:34:21;101822.34;;;24.14
64947;BMP280;51469;52.150;4.682;2023-05-01T14:36:46;101834.00;;;24.25
64947;BMP280;51469;52.150;4.682;2023-05-01T14:39:11;101823.78;;;24.19
64947;BMP280;51469;52.150;4.682;2023-05-01T14:41:40;101843.91;;;24.17
64947;BMP280;51469;52.150;4.682;2023-05-01T14:44:10;101839.63;;;24.25